sensor_id;sensor_type;location;lat;lon;timestamp;P1;durP1;ratioP1;P2;durP2;ratioP2
12407;SDS011;6268;48.188;17.134;2023-12-28T00:00:44;8.70;;;7.93;;
12407;SDS011;6268;48.188;17.134;2023-12-28T00:03:13;9.48;;;7.82;;
12407;SDS011;6268;48.188;17.134;2023-12-28T00:05:43;12.10;;;10.98;;
12407;SDS011;6268;48.188;17.134;2023-12-28T00:08:11;11.30;;;8.35;;
12407;SDS011;6268;48.188;17.134;2023-12-28T00:10:40;9.43;;;8.52;;
12407;SDS011;6268;48.188;17.134;2023-12-28T00:13:09;9.13;;;8.02;;
12407;SDS011;6268;48.188;17.134;2023-12-28T00:15:37;9.50;;;8.55;;
12407;SDS011;6268;48.188;17.134;2023-12-28T00:18:06;12.45;;;8.60;;
12407;SDS011;6268;48.188;17.134;2023-12-28T00:20:34;12.68;;;11.38;;
12407;SDS011;6268;48.188;17.134;2023-12-28T00:23:04;12.32;;;11.02;;
12407;SDS011;6268;48.188;17.134;2023-12-28T00:25:33;10.23;;;9.30;;
12407;SDS011;6268;48.188;17.134;2023-12-28T00:28:02;10.13;;;9.13;;
12407;SDS011;6268;48.188;17.134;2023-12-28T00:30:31;9.40;;;8.40;;
12407;SDS011;6268;48.188;17.134;2023-12-28T00:33:00;9.93;;;8.98;;
12407;SDS011;6268;48.188;17.134;2023-12-28T00:35:29;9.00;;;7.68;;
12407;SDS011;6268;48.188;17.134;2023-12-28T00:37:57;9.20;;;8.30;;
12407;SDS011;6268;48.188;17.134;2023-12-28T00:40:29;8.88;;;7.15;;
12407;SDS011;6268;48.188;17.134;2023-12-28T00:42:57;9.10;;;8.20;;
12407;SDS011;6268;48.188;17.134;2023-12-28T00:45:26;8.98;;;7.70;;
12407;SDS011;6268;48.188;17.134;2023-12-28T00:47:54;11.00;;;8.68;;
12407;SDS011;6268;48.188;17.134;2023-12-28T00:50:24;9.27;;;7.78;;
12407;SDS011;6268;48.188;17.134;2023-12-28T00:52:54;9.43;;;8.15;;
12407;SDS011;6268;48.188;17.134;2023-12-28T00:55:22;10.27;;;9.18;;
12407;SDS011;6268;48.188;17.134;2023-12-28T00:57:53;9.07;;;7.95;;
12407;SDS011;6268;48.188;17.134;2023-12-28T01:00:21;9.88;;;8.82;;
12407;SDS011;6268;48.188;17.134;2023-12-28T01:02:50;9.98;;;9.18;;
12407;SDS011;6268;48.188;17.134;2023-12-28T01:05:19;9.52;;;8.73;;
12407;SDS011;6268;48.188;17.134;2023-12-28T01:07:48;9.10;;;8.10;;
12407;SDS011;6268;48.188;17.134;2023-12-28T01:10:16;10.23;;;9.23;;
12407;SDS011;6268;48.188;17.134;2023-12-28T01:12:45;9.98;;;9.15;;
12407;SDS011;6268;48.188;17.134;2023-12-28T01:15:15;10.25;;;9.35;;
12407;SDS011;6268;48.188;17.134;2023-12-28T01:17:44;10.15;;;9.18;;
12407;SDS011;6268;48.188;17.134;2023-12-28T01:20:13;10.27;;;9.27;;
12407;SDS011;6268;48.188;17.134;2023-12-28T01:22:42;9.73;;;8.90;;
12407;SDS011;6268;48.188;17.134;2023-12-28T01:25:10;10.18;;;9.27;;
12407;SDS011;6268;48.188;17.134;2023-12-28T01:27:39;9.98;;;8.77;;
12407;SDS011;6268;48.188;17.134;2023-12-28T01:30:08;8.98;;;8.07;;
12407;SDS011;6268;48.188;17.134;2023-12-28T01:32:38;10.63;;;9.60;;
12407;SDS011;6268;48.188;17.134;2023-12-28T01:35:07;10.65;;;8.52;;
12407;SDS011;6268;48.188;17.134;2023-12-28T01:37:36;10.05;;;9.15;;
12407;SDS011;6268;48.188;17.134;2023-12-28T01:40:05;9.60;;;8.82;;
12407;SDS011;6268;48.188;17.134;2023-12-28T01:42:35;9.43;;;8.70;;
12407;SDS011;6268;48.188;17.134;2023-12-28T01:45:04;9.93;;;8.98;;
12407;SDS011;6268;48.188;17.134;2023-12-28T01:47:33;9.50;;;8.70;;
12407;SDS011;6268;48.188;17.134;2023-12-28T01:50:04;9.85;;;8.00;;
12407;SDS011;6268;48.188;17.134;2023-12-28T01:52:34;9.95;;;9.05;;
12407;SDS011;6268;48.188;17.134;2023-12-28T01:55:03;10.02;;;8.30;;
12407;SDS011;6268;48.188;17.134;2023-12-28T01:57:33;9.50;;;8.70;;
12407;SDS011;6268;48.188;17.134;2023-12-28T02:00:02;10.20;;;8.57;;
12407;SDS011;6268;48.188;17.134;2023-12-28T02:02:31;10.32;;;9.32;;
12407;SDS011;6268;48.188;17.134;2023-12-28T02:05:00;9.70;;;8.75;;
12407;SDS011;6268;48.188;17.134;2023-12-28T02:07:30;9.35;;;8.45;;
12407;SDS011;6268;48.188;17.134;2023-12-28T02:10:00;9.55;;;7.88;;
12407;SDS011;6268;48.188;17.134;2023-12-28T02:12:29;9.95;;;8.25;;
12407;SDS011;6268;48.188;17.134;2023-12-28T02:14:58;8.65;;;7.72;;
12407;SDS011;6268;48.188;17.134;2023-12-28T02:17:28;8.65;;;7.47;;
12407;SDS011;6268;48.188;17.134;2023-12-28T02:20:01;9.68;;;8.20;;
12407;SDS011;6268;48.188;17.134;2023-12-28T02:22:34;9.32;;;8.48;;
12407;SDS011;6268;48.188;17.134;2023-12-28T02:25:06;10.00;;;9.00;;
12407;SDS011;6268;48.188;17.134;2023-12-28T02:27:35;9.27;;;8.40;;
12407;SDS011;6268;48.188;17.134;2023-12-28T02:30:06;11.50;;;8.55;;
12407;SDS011;6268;48.188;17.134;2023-12-28T02:32:43;10.35;;;8.48;;
12407;SDS011;6268;48.188;17.134;2023-12-28T02:35:17;9.90;;;8.15;;
12407;SDS011;6268;48.188;17.134;2023-12-28T02:37:50;8.85;;;7.65;;
12407;SDS011;6268;48.188;17.134;2023-12-28T02:40:23;9.93;;;7.88;;
12407;SDS011;6268;48.188;17.134;2023-12-28T02:42:52;10.47;;;8.33;;
12407;SDS011;6268;48.188;17.134;2023-12-28T02:45:21;10.05;;;8.90;;
12407;SDS011;6268;48.188;17.134;2023-12-28T02:47:50;9.80;;;8.77;;
12407;SDS011;6268;48.188;17.134;2023-12-28T02:50:18;10.43;;;9.43;;
12407;SDS011;6268;48.188;17.134;2023-12-28T02:52:47;8.80;;;7.90;;
12407;SDS011;6268;48.188;17.134;2023-12-28T02:55:15;11.85;;;8.48;;
12407;SDS011;6268;48.188;17.134;2023-12-28T02:57:45;9.00;;;8.10;;
12407;SDS011;6268;48.188;17.134;2023-12-28T03:00:14;9.57;;;8.57;;
12407;SDS011;6268;48.188;17.134;2023-12-28T03:02:43;9.65;;;8.65;;
12407;SDS011;6268;48.188;17.134;2023-12-28T03:05:12;10.30;;;9.40;;
12407;SDS011;6268;48.188;17.134;2023-12-28T03:07:40;9.70;;;8.57;;
12407;SDS011;6268;48.188;17.134;2023-12-28T03:10:09;9.70;;;8.90;;
12407;SDS011;6268;48.188;17.134;2023-12-28T03:12:40;8.93;;;7.75;;
12407;SDS011;6268;48.188;17.134;2023-12-28T03:15:10;9.27;;;8.37;;
12407;SDS011;6268;48.188;17.134;2023-12-28T03:17:39;10.87;;;9.77;;
12407;SDS011;6268;48.188;17.134;2023-12-28T03:20:09;8.97;;;8.20;;
12407;SDS011;6268;48.188;17.134;2023-12-28T03:22:38;10.00;;;9.00;;
12407;SDS011;6268;48.188;17.134;2023-12-28T03:25:08;9.87;;;8.47;;
12407;SDS011;6268;48.188;17.134;2023-12-28T03:27:36;9.15;;;8.27;;
12407;SDS011;6268;48.188;17.134;2023-12-28T03:30:05;11.07;;;8.07;;
12407;SDS011;6268;48.188;17.134;2023-12-28T03:32:36;8.90;;;7.97;;
12407;SDS011;6268;48.188;17.134;2023-12-28T03:35:05;10.13;;;8.30;;
12407;SDS011;6268;48.188;17.134;2023-12-28T03:37:34;9.00;;;7.73;;
12407;SDS011;6268;48.188;17.134;2023-12-28T03:40:03;10.20;;;9.30;;
12407;SDS011;6268;48.188;17.134;2023-12-28T03:42:32;9.90;;;8.52;;
12407;SDS011;6268;48.188;17.134;2023-12-28T03:45:01;11.13;;;8.50;;
12407;SDS011;6268;48.188;17.134;2023-12-28T03:47:30;9.60;;;7.93;;
12407;SDS011;6268;48.188;17.134;2023-12-28T03:50:00;10.73;;;8.15;;
12407;SDS011;6268;48.188;17.134;2023-12-28T03:52:28;9.65;;;8.57;;
12407;SDS011;6268;48.188;17.134;2023-12-28T03:54:57;9.23;;;8.13;;
12407;SDS011;6268;48.188;17.134;2023-12-28T03:57:26;10.17;;;8.07;;
12407;SDS011;6268;48.188;17.134;2023-12-28T03:59:55;8.47;;;7.67;;
12407;SDS011;6268;48.188;17.134;2023-12-28T04:02:23;8.75;;;8.05;;
12407;SDS011;6268;48.188;17.134;2023-12-28T04:04:54;12.93;;;8.90;;
12407;SDS011;6268;48.188;17.134;2023-12-28T04:07:26;10.00;;;8.38;;
12407;SDS011;6268;48.188;17.134;2023-12-28T04:09:55;10.65;;;9.52;;
12407;SDS011;6268;48.188;17.134;2023-12-28T04:12:25;9.53;;;8.63;;
12407;SDS011;6268;48.188;17.134;2023-12-28T04:14:54;9.03;;;8.13;;
12407;SDS011;6268;48.188;17.134;2023-12-28T04:17:23;9.10;;;8.20;;
12407;SDS011;6268;48.188;17.134;2023-12-28T04:19:52;9.37;;;8.33;;
12407;SDS011;6268;48.188;17.134;2023-12-28T04:22:20;9.93;;;7.55;;
12407;SDS011;6268;48.188;17.134;2023-12-28T04:24:50;11.10;;;8.33;;
12407;SDS011;6268;48.188;17.134;2023-12-28T04:27:19;10.87;;;9.77;;
12407;SDS011;6268;48.188;17.134;2023-12-28T04:29:48;10.00;;;9.00;;
12407;SDS011;6268;48.188;17.134;2023-12-28T04:32:16;9.47;;;8.30;;
12407;SDS011;6268;48.188;17.134;2023-12-28T04:34:45;10.10;;;9.30;;
12407;SDS011;6268;48.188;17.134;2023-12-28T04:37:14;9.80;;;8.85;;
12407;SDS011;6268;48.188;17.134;2023-12-28T04:39:42;9.43;;;8.43;;
12407;SDS011;6268;48.188;17.134;2023-12-28T04:42:12;10.50;;;9.60;;
12407;SDS011;6268;48.188;17.134;2023-12-28T04:44:41;10.23;;;8.30;;
12407;SDS011;6268;48.188;17.134;2023-12-28T04:47:10;8.90;;;8.00;;
12407;SDS011;6268;48.188;17.134;2023-12-28T04:49:38;9.80;;;8.80;;
12407;SDS011;6268;48.188;17.134;2023-12-28T04:52:07;9.37;;;8.00;;
12407;SDS011;6268;48.188;17.134;2023-12-28T04:54:36;11.80;;;9.10;;
12407;SDS011;6268;48.188;17.134;2023-12-28T04:57:07;10.57;;;8.48;;
12407;SDS011;6268;48.188;17.134;2023-12-28T04:59:39;11.52;;;8.45;;
12407;SDS011;6268;48.188;17.134;2023-12-28T05:02:08;11.65;;;8.18;;
12407;SDS011;6268;48.188;17.134;2023-12-28T05:04:36;9.13;;;8.23;;
12407;SDS011;6268;48.188;17.134;2023-12-28T05:07:06;9.43;;;8.45;;
12407;SDS011;6268;48.188;17.134;2023-12-28T05:09:35;10.67;;;9.00;;
12407;SDS011;6268;48.188;17.134;2023-12-28T05:12:04;10.50;;;9.50;;
12407;SDS011;6268;48.188;17.134;2023-12-28T05:14:33;10.32;;;9.30;;
12407;SDS011;6268;48.188;17.134;2023-12-28T05:17:03;11.75;;;9.00;;
12407;SDS011;6268;48.188;17.134;2023-12-28T05:19:32;10.57;;;9.63;;
12407;SDS011;6268;48.188;17.134;2023-12-28T05:22:00;10.00;;;8.82;;
12407;SDS011;6268;48.188;17.134;2023-12-28T05:24:30;12.60;;;8.17;;
12407;SDS011;6268;48.188;17.134;2023-12-28T05:26:59;9.85;;;9.05;;
12407;SDS011;6268;48.188;17.134;2023-12-28T05:29:27;11.60;;;8.57;;
12407;SDS011;6268;48.188;17.134;2023-12-28T05:31:56;9.75;;;8.85;;
12407;SDS011;6268;48.188;17.134;2023-12-28T05:34:26;10.40;;;9.10;;
12407;SDS011;6268;48.188;17.134;2023-12-28T05:36:55;9.68;;;8.73;;
12407;SDS011;6268;48.188;17.134;2023-12-28T05:39:23;10.20;;;7.80;;
12407;SDS011;6268;48.188;17.134;2023-12-28T05:41:52;9.37;;;8.47;;
12407;SDS011;6268;48.188;17.134;2023-12-28T05:44:20;9.53;;;8.47;;
12407;SDS011;6268;48.188;17.134;2023-12-28T05:46:49;9.97;;;9.17;;
12407;SDS011;6268;48.188;17.134;2023-12-28T05:49:19;12.38;;;9.82;;
12407;SDS011;6268;48.188;17.134;2023-12-28T05:51:49;11.17;;;8.37;;
12407;SDS011;6268;48.188;17.134;2023-12-28T05:54:17;10.40;;;7.83;;
12407;SDS011;6268;48.188;17.134;2023-12-28T05:56:46;12.20;;;8.87;;
12407;SDS011;6268;48.188;17.134;2023-12-28T05:59:15;9.77;;;8.73;;
12407;SDS011;6268;48.188;17.134;2023-12-28T06:01:45;12.63;;;8.43;;
12407;SDS011;6268;48.188;17.134;2023-12-28T06:04:14;9.57;;;8.57;;
12407;SDS011;6268;48.188;17.134;2023-12-28T06:06:43;10.80;;;9.00;;
12407;SDS011;6268;48.188;17.134;2023-12-28T06:09:13;9.73;;;8.40;;
12407;SDS011;6268;48.188;17.134;2023-12-28T06:11:41;12.23;;;9.50;;
12407;SDS011;6268;48.188;17.134;2023-12-28T06:14:10;11.25;;;8.32;;
12407;SDS011;6268;48.188;17.134;2023-12-28T06:16:39;15.00;;;9.50;;
12407;SDS011;6268;48.188;17.134;2023-12-28T06:19:07;10.03;;;9.03;;
12407;SDS011;6268;48.188;17.134;2023-12-28T06:21:36;12.00;;;10.48;;
12407;SDS011;6268;48.188;17.134;2023-12-28T06:24:05;16.63;;;11.05;;
12407;SDS011;6268;48.188;17.134;2023-12-28T06:26:35;13.07;;;10.37;;
12407;SDS011;6268;48.188;17.134;2023-12-28T06:29:07;11.40;;;10.23;;
12407;SDS011;6268;48.188;17.134;2023-12-28T06:31:36;12.90;;;10.30;;
12407;SDS011;6268;48.188;17.134;2023-12-28T06:34:05;12.13;;;10.77;;
12407;SDS011;6268;48.188;17.134;2023-12-28T06:36:35;12.40;;;9.60;;
12407;SDS011;6268;48.188;17.134;2023-12-28T06:39:03;17.07;;;10.90;;
12407;SDS011;6268;48.188;17.134;2023-12-28T06:41:32;11.17;;;10.07;;
12407;SDS011;6268;48.188;17.134;2023-12-28T06:44:02;14.53;;;10.60;;
12407;SDS011;6268;48.188;17.134;2023-12-28T06:46:30;11.32;;;10.02;;
12407;SDS011;6268;48.188;17.134;2023-12-28T06:48:59;11.07;;;9.97;;
12407;SDS011;6268;48.188;17.134;2023-12-28T06:51:27;12.00;;;10.40;;
12407;SDS011;6268;48.188;17.134;2023-12-28T06:53:56;12.97;;;11.17;;
12407;SDS011;6268;48.188;17.134;2023-12-28T06:56:25;13.70;;;9.73;;
12407;SDS011;6268;48.188;17.134;2023-12-28T06:58:55;12.07;;;10.27;;
12407;SDS011;6268;48.188;17.134;2023-12-28T07:01:25;11.93;;;10.70;;
12407;SDS011;6268;48.188;17.134;2023-12-28T07:03:53;13.53;;;10.17;;
12407;SDS011;6268;48.188;17.134;2023-12-28T07:06:22;12.57;;;11.23;;
12407;SDS011;6268;48.188;17.134;2023-12-28T07:08:51;12.23;;;10.30;;
12407;SDS011;6268;48.188;17.134;2023-12-28T07:11:19;12.07;;;10.70;;
12407;SDS011;6268;48.188;17.134;2023-12-28T07:13:48;12.17;;;9.67;;
12407;SDS011;6268;48.188;17.134;2023-12-28T07:16:17;12.07;;;10.43;;
12407;SDS011;6268;48.188;17.134;2023-12-28T07:18:47;12.30;;;9.77;;
12407;SDS011;6268;48.188;17.134;2023-12-28T07:21:16;11.85;;;10.73;;
12407;SDS011;6268;48.188;17.134;2023-12-28T07:23:44;18.23;;;14.67;;
12407;SDS011;6268;48.188;17.134;2023-12-28T07:26:16;20.90;;;16.50;;
12407;SDS011;6268;48.188;17.134;2023-12-28T07:28:44;15.77;;;12.75;;
12407;SDS011;6268;48.188;17.134;2023-12-28T07:31:22;37.67;;;28.58;;
12407;SDS011;6268;48.188;17.134;2023-12-28T07:33:52;12.77;;;10.50;;
12407;SDS011;6268;48.188;17.134;2023-12-28T07:36:21;15.55;;;12.32;;
12407;SDS011;6268;48.188;17.134;2023-12-28T07:38:50;14.20;;;12.00;;
12407;SDS011;6268;48.188;17.134;2023-12-28T07:41:18;13.60;;;11.20;;
12407;SDS011;6268;48.188;17.134;2023-12-28T07:43:47;17.17;;;12.18;;
12407;SDS011;6268;48.188;17.134;2023-12-28T07:46:15;16.75;;;11.40;;
12407;SDS011;6268;48.188;17.134;2023-12-28T07:48:44;18.55;;;11.38;;
12407;SDS011;6268;48.188;17.134;2023-12-28T07:51:14;14.27;;;10.30;;
12407;SDS011;6268;48.188;17.134;2023-12-28T07:53:43;22.05;;;10.48;;
12407;SDS011;6268;48.188;17.134;2023-12-28T07:56:11;13.45;;;12.18;;
12407;SDS011;6268;48.188;17.134;2023-12-28T07:58:40;12.32;;;10.82;;
12407;SDS011;6268;48.188;17.134;2023-12-28T08:01:11;16.05;;;11.77;;
12407;SDS011;6268;48.188;17.134;2023-12-28T08:03:40;13.73;;;10.38;;
12407;SDS011;6268;48.188;17.134;2023-12-28T08:06:09;17.48;;;10.80;;
12407;SDS011;6268;48.188;17.134;2023-12-28T08:08:40;12.80;;;11.35;;
12407;SDS011;6268;48.188;17.134;2023-12-28T08:11:09;13.82;;;10.77;;
12407;SDS011;6268;48.188;17.134;2023-12-28T08:13:38;17.60;;;14.30;;
12407;SDS011;6268;48.188;17.134;2023-12-28T08:16:07;18.90;;;16.42;;
12407;SDS011;6268;48.188;17.134;2023-12-28T08:18:36;27.77;;;19.40;;
12407;SDS011;6268;48.188;17.134;2023-12-28T08:21:06;17.80;;;14.00;;
12407;SDS011;6268;48.188;17.134;2023-12-28T08:23:35;15.65;;;13.43;;
12407;SDS011;6268;48.188;17.134;2023-12-28T08:26:05;21.35;;;16.75;;
12407;SDS011;6268;48.188;17.134;2023-12-28T08:28:34;13.98;;;11.18;;
12407;SDS011;6268;48.188;17.134;2023-12-28T08:31:03;18.92;;;12.10;;
12407;SDS011;6268;48.188;17.134;2023-12-28T08:33:34;13.23;;;11.90;;
12407;SDS011;6268;48.188;17.134;2023-12-28T08:36:06;13.38;;;10.52;;
12407;SDS011;6268;48.188;17.134;2023-12-28T08:38:35;11.77;;;10.18;;
12407;SDS011;6268;48.188;17.134;2023-12-28T08:41:05;18.85;;;11.75;;
12407;SDS011;6268;48.188;17.134;2023-12-28T08:43:35;10.60;;;9.57;;
12407;SDS011;6268;48.188;17.134;2023-12-28T08:46:07;12.65;;;10.95;;
12407;SDS011;6268;48.188;17.134;2023-12-28T08:48:36;10.27;;;9.25;;
12407;SDS011;6268;48.188;17.134;2023-12-28T08:51:05;11.90;;;10.50;;
12407;SDS011;6268;48.188;17.134;2023-12-28T08:53:33;11.40;;;10.15;;
12407;SDS011;6268;48.188;17.134;2023-12-28T08:56:02;12.32;;;9.90;;
12407;SDS011;6268;48.188;17.134;2023-12-28T08:58:42;12.43;;;10.18;;
12407;SDS011;6268;48.188;17.134;2023-12-28T09:01:15;15.25;;;10.18;;
12407;SDS011;6268;48.188;17.134;2023-12-28T09:03:44;12.55;;;10.88;;
12407;SDS011;6268;48.188;17.134;2023-12-28T09:06:13;14.30;;;10.32;;
12407;SDS011;6268;48.188;17.134;2023-12-28T09:08:42;12.93;;;10.68;;
12407;SDS011;6268;48.188;17.134;2023-12-28T09:11:11;13.45;;;12.00;;
12407;SDS011;6268;48.188;17.134;2023-12-28T09:13:41;21.80;;;16.95;;
12407;SDS011;6268;48.188;17.134;2023-12-28T09:16:11;12.27;;;11.05;;
12407;SDS011;6268;48.188;17.134;2023-12-28T09:18:41;14.77;;;13.38;;
12407;SDS011;6268;48.188;17.134;2023-12-28T09:21:10;15.38;;;10.77;;
12407;SDS011;6268;48.188;17.134;2023-12-28T09:23:39;18.65;;;15.75;;
12407;SDS011;6268;48.188;17.134;2023-12-28T09:26:07;11.15;;;10.00;;
12407;SDS011;6268;48.188;17.134;2023-12-28T09:28:36;15.18;;;13.57;;
12407;SDS011;6268;48.188;17.134;2023-12-28T09:31:06;12.05;;;10.95;;
12407;SDS011;6268;48.188;17.134;2023-12-28T09:33:35;12.35;;;11.00;;
12407;SDS011;6268;48.188;17.134;2023-12-28T09:36:03;12.43;;;11.07;;
12407;SDS011;6268;48.188;17.134;2023-12-28T09:38:33;12.57;;;10.90;;
12407;SDS011;6268;48.188;17.134;2023-12-28T09:41:03;12.10;;;10.93;;
12407;SDS011;6268;48.188;17.134;2023-12-28T09:43:41;11.88;;;10.43;;
12407;SDS011;6268;48.188;17.134;2023-12-28T09:46:21;12.07;;;10.88;;
12407;SDS011;6268;48.188;17.134;2023-12-28T09:48:49;12.35;;;10.48;;
12407;SDS011;6268;48.188;17.134;2023-12-28T09:51:20;12.07;;;10.93;;
12407;SDS011;6268;48.188;17.134;2023-12-28T09:53:49;11.95;;;10.65;;
12407;SDS011;6268;48.188;17.134;2023-12-28T09:56:17;11.30;;;10.20;;
12407;SDS011;6268;48.188;17.134;2023-12-28T09:58:46;12.70;;;11.40;;
12407;SDS011;6268;48.188;17.134;2023-12-28T10:01:17;12.25;;;11.15;;
12407;SDS011;6268;48.188;17.134;2023-12-28T10:03:48;13.00;;;11.68;;
12407;SDS011;6268;48.188;17.134;2023-12-28T10:06:17;13.38;;;11.98;;
12407;SDS011;6268;48.188;17.134;2023-12-28T10:08:46;13.77;;;11.48;;
12407;SDS011;6268;48.188;17.134;2023-12-28T10:11:15;12.38;;;11.18;;
12407;SDS011;6268;48.188;17.134;2023-12-28T10:13:44;14.48;;;11.70;;
12407;SDS011;6268;48.188;17.134;2023-12-28T10:16:14;12.60;;;11.30;;
12407;SDS011;6268;48.188;17.134;2023-12-28T10:18:44;12.60;;;11.32;;
12407;SDS011;6268;48.188;17.134;2023-12-28T10:21:14;12.80;;;11.48;;
12407;SDS011;6268;48.188;17.134;2023-12-28T10:23:43;13.20;;;11.68;;
12407;SDS011;6268;48.188;17.134;2023-12-28T10:26:12;13.80;;;12.48;;
12407;SDS011;6268;48.188;17.134;2023-12-28T10:28:43;12.98;;;11.88;;
12407;SDS011;6268;48.188;17.134;2023-12-28T10:31:12;14.23;;;12.82;;
12407;SDS011;6268;48.188;17.134;2023-12-28T10:33:43;14.50;;;13.00;;
12407;SDS011;6268;48.188;17.134;2023-12-28T10:36:15;13.93;;;12.70;;
12407;SDS011;6268;48.188;17.134;2023-12-28T10:38:44;13.98;;;12.55;;
12407;SDS011;6268;48.188;17.134;2023-12-28T10:41:19;14.75;;;13.25;;
12407;SDS011;6268;48.188;17.134;2023-12-28T10:43:55;14.15;;;12.75;;
12407;SDS011;6268;48.188;17.134;2023-12-28T10:46:37;15.30;;;13.80;;
12407;SDS011;6268;48.188;17.134;2023-12-28T10:49:11;15.07;;;13.23;;
12407;SDS011;6268;48.188;17.134;2023-12-28T10:51:42;14.27;;;12.88;;
12407;SDS011;6268;48.188;17.134;2023-12-28T10:54:17;14.52;;;13.05;;
12407;SDS011;6268;48.188;17.134;2023-12-28T10:56:59;13.77;;;12.48;;
12407;SDS011;6268;48.188;17.134;2023-12-28T10:59:35;14.90;;;13.05;;
12407;SDS011;6268;48.188;17.134;2023-12-28T11:02:13;14.02;;;12.63;;
12407;SDS011;6268;48.188;17.134;2023-12-28T11:04:48;14.45;;;13.05;;
12407;SDS011;6268;48.188;17.134;2023-12-28T11:07:20;14.52;;;13.13;;
12407;SDS011;6268;48.188;17.134;2023-12-28T11:09:49;15.35;;;12.77;;
12407;SDS011;6268;48.188;17.134;2023-12-28T11:12:19;18.27;;;14.18;;
12407;SDS011;6268;48.188;17.134;2023-12-28T11:14:48;14.65;;;13.07;;
12407;SDS011;6268;48.188;17.134;2023-12-28T11:17:19;12.50;;;11.30;;
12407;SDS011;6268;48.188;17.134;2023-12-28T11:19:51;13.93;;;12.50;;
12407;SDS011;6268;48.188;17.134;2023-12-28T11:22:22;14.52;;;12.20;;
12407;SDS011;6268;48.188;17.134;2023-12-28T11:24:52;12.85;;;11.15;;
12407;SDS011;6268;48.188;17.134;2023-12-28T11:27:21;13.48;;;12.18;;
12407;SDS011;6268;48.188;17.134;2023-12-28T11:29:51;12.95;;;11.77;;
12407;SDS011;6268;48.188;17.134;2023-12-28T11:32:20;14.20;;;12.50;;
12407;SDS011;6268;48.188;17.134;2023-12-28T11:34:56;14.20;;;12.90;;
12407;SDS011;6268;48.188;17.134;2023-12-28T11:37:27;14.45;;;12.68;;
12407;SDS011;6268;48.188;17.134;2023-12-28T11:39:58;13.38;;;11.98;;
12407;SDS011;6268;48.188;17.134;2023-12-28T11:42:46;13.68;;;12.38;;
12407;SDS011;6268;48.188;17.134;2023-12-28T11:45:16;15.15;;;12.95;;
12407;SDS011;6268;48.188;17.134;2023-12-28T11:47:45;16.52;;;12.60;;
12407;SDS011;6268;48.188;17.134;2023-12-28T11:50:14;21.75;;;13.68;;
12407;SDS011;6268;48.188;17.134;2023-12-28T11:52:44;14.07;;;12.57;;
12407;SDS011;6268;48.188;17.134;2023-12-28T11:55:20;18.45;;;14.65;;
12407;SDS011;6268;48.188;17.134;2023-12-28T11:57:50;24.67;;;21.40;;
12407;SDS011;6268;48.188;17.134;2023-12-28T12:00:19;18.90;;;16.85;;
12407;SDS011;6268;48.188;17.134;2023-12-28T12:02:48;14.73;;;13.32;;
12407;SDS011;6268;48.188;17.134;2023-12-28T12:05:17;14.60;;;13.20;;
12407;SDS011;6268;48.188;17.134;2023-12-28T12:07:47;14.50;;;13.07;;
12407;SDS011;6268;48.188;17.134;2023-12-28T12:10:17;14.57;;;12.43;;
12407;SDS011;6268;48.188;17.134;2023-12-28T12:12:45;13.20;;;11.85;;
12407;SDS011;6268;48.188;17.134;2023-12-28T12:15:14;18.17;;;13.43;;
12407;SDS011;6268;48.188;17.134;2023-12-28T12:17:44;13.70;;;12.35;;
12407;SDS011;6268;48.188;17.134;2023-12-28T12:20:12;14.70;;;12.30;;
12407;SDS011;6268;48.188;17.134;2023-12-28T12:22:42;12.50;;;11.30;;
12407;SDS011;6268;48.188;17.134;2023-12-28T12:25:12;19.10;;;17.05;;
12407;SDS011;6268;48.188;17.134;2023-12-28T12:27:42;14.75;;;13.23;;
12407;SDS011;6268;48.188;17.134;2023-12-28T12:30:11;17.85;;;12.15;;
12407;SDS011;6268;48.188;17.134;2023-12-28T12:32:40;13.85;;;12.60;;
12407;SDS011;6268;48.188;17.134;2023-12-28T12:35:10;14.57;;;12.93;;
12407;SDS011;6268;48.188;17.134;2023-12-28T12:37:41;14.23;;;12.73;;
12407;SDS011;6268;48.188;17.134;2023-12-28T12:40:10;19.05;;;13.60;;
12407;SDS011;6268;48.188;17.134;2023-12-28T12:42:42;16.88;;;15.07;;
12407;SDS011;6268;48.188;17.134;2023-12-28T12:45:19;16.63;;;14.45;;
12407;SDS011;6268;48.188;17.134;2023-12-28T12:47:48;16.75;;;14.98;;
12407;SDS011;6268;48.188;17.134;2023-12-28T12:50:17;15.88;;;14.23;;
12407;SDS011;6268;48.188;17.134;2023-12-28T12:52:46;15.93;;;13.60;;
12407;SDS011;6268;48.188;17.134;2023-12-28T12:55:16;15.68;;;14.15;;
12407;SDS011;6268;48.188;17.134;2023-12-28T12:57:45;15.82;;;13.93;;
12407;SDS011;6268;48.188;17.134;2023-12-28T13:00:14;15.02;;;13.50;;
12407;SDS011;6268;48.188;17.134;2023-12-28T13:02:44;15.68;;;13.60;;
12407;SDS011;6268;48.188;17.134;2023-12-28T13:05:12;17.33;;;15.43;;
12407;SDS011;6268;48.188;17.134;2023-12-28T13:07:41;16.42;;;14.57;;
12407;SDS011;6268;48.188;17.134;2023-12-28T13:10:10;15.15;;;13.75;;
12407;SDS011;6268;48.188;17.134;2023-12-28T13:12:40;19.55;;;14.43;;
12407;SDS011;6268;48.188;17.134;2023-12-28T13:15:09;16.48;;;14.82;;
12407;SDS011;6268;48.188;17.134;2023-12-28T13:17:37;18.60;;;16.80;;
12407;SDS011;6268;48.188;17.134;2023-12-28T13:20:06;18.52;;;16.70;;
12407;SDS011;6268;48.188;17.134;2023-12-28T13:22:36;21.02;;;18.70;;
12407;SDS011;6268;48.188;17.134;2023-12-28T13:25:04;17.45;;;15.15;;
12407;SDS011;6268;48.188;17.134;2023-12-28T13:27:33;16.15;;;14.45;;
12407;SDS011;6268;48.188;17.134;2023-12-28T13:30:04;15.07;;;13.73;;
12407;SDS011;6268;48.188;17.134;2023-12-28T13:32:33;20.55;;;17.90;;
12407;SDS011;6268;48.188;17.134;2023-12-28T13:35:02;17.20;;;14.70;;
12407;SDS011;6268;48.188;17.134;2023-12-28T13:37:31;16.77;;;15.07;;
12407;SDS011;6268;48.188;17.134;2023-12-28T13:40:00;15.52;;;13.93;;
12407;SDS011;6268;48.188;17.134;2023-12-28T13:42:28;18.25;;;13.50;;
12407;SDS011;6268;48.188;17.134;2023-12-28T13:44:57;15.48;;;14.07;;
12407;SDS011;6268;48.188;17.134;2023-12-28T13:47:27;15.35;;;13.88;;
12407;SDS011;6268;48.188;17.134;2023-12-28T13:49:55;17.15;;;15.55;;
12407;SDS011;6268;48.188;17.134;2023-12-28T13:52:24;17.17;;;15.18;;
12407;SDS011;6268;48.188;17.134;2023-12-28T13:54:52;34.30;;;15.68;;
12407;SDS011;6268;48.188;17.134;2023-12-28T13:57:21;19.30;;;14.80;;
12407;SDS011;6268;48.188;17.134;2023-12-28T13:59:49;17.10;;;15.38;;
12407;SDS011;6268;48.188;17.134;2023-12-28T14:02:20;16.52;;;14.85;;
12407;SDS011;6268;48.188;17.134;2023-12-28T14:04:50;16.83;;;15.13;;
12407;SDS011;6268;48.188;17.134;2023-12-28T14:07:20;17.85;;;16.15;;
12407;SDS011;6268;48.188;17.134;2023-12-28T14:09:50;17.55;;;15.52;;
12407;SDS011;6268;48.188;17.134;2023-12-28T14:12:19;17.92;;;15.27;;
12407;SDS011;6268;48.188;17.134;2023-12-28T14:14:47;16.52;;;14.65;;
12407;SDS011;6268;48.188;17.134;2023-12-28T14:17:16;20.08;;;17.90;;
12407;SDS011;6268;48.188;17.134;2023-12-28T14:19:46;17.45;;;15.65;;
12407;SDS011;6268;48.188;17.134;2023-12-28T14:22:16;16.92;;;15.18;;
12407;SDS011;6268;48.188;17.134;2023-12-28T14:24:45;18.67;;;16.88;;
12407;SDS011;6268;48.188;17.134;2023-12-28T14:27:15;19.30;;;17.38;;
12407;SDS011;6268;48.188;17.134;2023-12-28T14:29:44;20.50;;;18.25;;
12407;SDS011;6268;48.188;17.134;2023-12-28T14:32:13;20.73;;;18.60;;
12407;SDS011;6268;48.188;17.134;2023-12-28T14:34:42;19.55;;;17.33;;
12407;SDS011;6268;48.188;17.134;2023-12-28T14:37:10;18.58;;;16.77;;
12407;SDS011;6268;48.188;17.134;2023-12-28T14:39:41;22.13;;;18.38;;
12407;SDS011;6268;48.188;17.134;2023-12-28T14:42:09;19.83;;;17.75;;
12407;SDS011;6268;48.188;17.134;2023-12-28T14:44:40;18.15;;;16.35;;